sensor_id;sensor_type;location;lat;lon;timestamp;pressure;altitude;pressure_sealevel;temperature;humidity
36190;BME280;22232;50.914;13.858;2023-05-09T00:00:35;98550.75;;;7.80;100.00
36190;BME280;22232;50.914;13.858;2023-05-09T00:03:03;98552.59;;;7.79;100.00
36190;BME280;22232;50.914;13.858;2023-05-09T00:05:32;98535.72;;;7.66;100.00
36190;BME280;22232;50.914;13.858;2023-05-09T00:07:59;98541.03;;;7.66;100.00
36190;BME280;22232;50.914;13.858;2023-05-09T00:10:27;98538.13;;;7.61;100.00
36190;BME280;22232;50.914;13.858;2023-05-09T00:12:55;98539.38;;;7.58;100.00
36190;BME280;22232;50.914;13.858;2023-05-09T00:15:23;98537.91;;;7.55;100.00
36190;BME280;22232;50.914;13.858;2023-05-09T00:17:52;98536.88;;;7.56;100.00
36190;BME280;22232;50.914;13.858;2023-05-09T00:20:20;98537.94;;;7.62;100.00
36190;BME280;22232;50.914;13.858;2023-05-09T00:22:48;98541.81;;;7.59;100.00
36190;BME280;22232;50.914;13.858;2023-05-09T00:25:15;98536.25;;;7.54;100.00
36190;BME280;22232;50.914;13.858;2023-05-09T00:27:43;98535.69;;;7.59;100.00
36190;BME280;22232;50.914;13.858;2023-05-09T00:30:11;98532.09;;;7.45;100.00
36190;BME280;22232;50.914;13.858;2023-05-09T00:32:39;98529.06;;;7.48;100.00
36190;BME280;22232;50.914;13.858;2023-05-09T00:35:08;98532.34;;;7.50;100.00
36190;BME280;22232;50.914;13.858;2023-05-09T00:37:36;98525.28;;;7.36;100.00
36190;BME280;22232;50.914;13.858;2023-05-09T00:40:05;98520.38;;;7.33;100.00
36190;BME280;22232;50.914;13.858;2023-05-09T00:42:34;98521.41;;;7.32;100.00
36190;BME280;22232;50.914;13.858;2023-05-09T00:45:02;98520.97;;;7.28;100.00
36190;BME280;22232;50.914;13.858;2023-05-09T00:47:30;98512.56;;;7.25;100.00
36190;BME280;22232;50.914;13.858;2023-05-09T00:49:58;98508.25;;;7.24;100.00
36190;BME280;22232;50.914;13.858;2023-05-09T00:52:26;98512.19;;;7.28;100.00
36190;BME280;22232;50.914;13.858;2023-05-09T00:54:54;98507.66;;;7.22;100.00
36190;BME280;22232;50.914;13.858;2023-05-09T00:57:22;98500.44;;;7.16;100.00
36190;BME280;22232;50.914;13.858;2023-05-09T00:59:49;98504.69;;;7.10;100.00
36190;BME280;22232;50.914;13.858;2023-05-09T01:02:17;98497.53;;;7.10;100.00
36190;BME280;22232;50.914;13.858;2023-05-09T01:04:45;98494.84;;;7.04;100.00
36190;BME280;22232;50.914;13.858;2023-05-09T01:07:29;98500.31;;;7.02;100.00
36190;BME280;22232;50.914;13.858;2023-05-09T01:10:09;98498.31;;;7.04;100.00
36190;BME280;22232;50.914;13.858;2023-05-09T01:12:58;98502.41;;;7.07;100.00
36190;BME280;22232;50.914;13.858;2023-05-09T01:15:33;98494.47;;;7.07;100.00
36190;BME280;22232;50.914;13.858;2023-05-09T01:20:52;98492.31;;;6.96;100.00
36190;BME280;22232;50.914;13.858;2023-05-09T01:26:03;98481.00;;;6.87;100.00
36190;BME280;22232;50.914;13.858;2023-05-09T01:31:18;98488.22;;;6.93;100.00
36190;BME280;22232;50.914;13.858;2023-05-09T01:33:54;98476.72;;;6.86;100.00
36190;BME280;22232;50.914;13.858;2023-05-09T01:36:24;98476.16;;;6.90;100.00
36190;BME280;22232;50.914;13.858;2023-05-09T01:38:56;98471.44;;;6.86;100.00
36190;BME280;22232;50.914;13.858;2023-05-09T01:41:28;98471.44;;;6.86;100.00
36190;BME280;22232;50.914;13.858;2023-05-09T01:43:58;98466.50;;;6.83;100.00
36190;BME280;22232;50.914;13.858;2023-05-09T01:46:27;98470.72;;;6.77;100.00
36190;BME280;22232;50.914;13.858;2023-05-09T01:48:56;98471.75;;;6.76;100.00
36190;BME280;22232;50.914;13.858;2023-05-09T01:51:24;98471.22;;;6.66;100.00
36190;BME280;22232;50.914;13.858;2023-05-09T01:53:54;98467.38;;;6.69;100.00
36190;BME280;22232;50.914;13.858;2023-05-09T01:56:23;98471.69;;;6.70;100.00
36190;BME280;22232;50.914;13.858;2023-05-09T01:58:54;98465.63;;;6.76;100.00
36190;BME280;22232;50.914;13.858;2023-05-09T02:01:22;98463.53;;;6.71;100.00
36190;BME280;22232;50.914;13.858;2023-05-09T02:03:51;98469.78;;;6.85;100.00
36190;BME280;22232;50.914;13.858;2023-05-09T02:06:21;98461.91;;;6.70;100.00
36190;BME280;22232;50.914;13.858;2023-05-09T02:08:50;98459.47;;;6.75;100.00
36190;BME280;22232;50.914;13.858;2023-05-09T02:11:17;98456.91;;;6.82;100.00
36190;BME280;22232;50.914;13.858;2023-05-09T02:13:45;98449.13;;;6.80;100.00
36190;BME280;22232;50.914;13.858;2023-05-09T02:16:13;98450.53;;;6.76;100.00
36190;BME280;22232;50.914;13.858;2023-05-09T02:18:40;98451.34;;;6.77;100.00
36190;BME280;22232;50.914;13.858;2023-05-09T02:21:08;98444.66;;;6.81;100.00
36190;BME280;22232;50.914;13.858;2023-05-09T02:23:35;98444.91;;;6.86;100.00
36190;BME280;22232;50.914;13.858;2023-05-09T02:26:03;98444.44;;;6.76;100.00
36190;BME280;22232;50.914;13.858;2023-05-09T02:28:31;98452.38;;;6.76;100.00
36190;BME280;22232;50.914;13.858;2023-05-09T02:31:00;98448.44;;;6.72;100.00
36190;BME280;22232;50.914;13.858;2023-05-09T02:33:32;98440.50;;;6.72;100.00
36190;BME280;22232;50.914;13.858;2023-05-09T02:36:01;98443.47;;;6.62;100.00
36190;BME280;22232;50.914;13.858;2023-05-09T02:38:29;98440.00;;;6.61;100.00
36190;BME280;22232;50.914;13.858;2023-05-09T02:40:56;98438.22;;;6.69;100.00
36190;BME280;22232;50.914;13.858;2023-05-09T02:43:26;98436.00;;;6.72;100.00
36190;BME280;22232;50.914;13.858;2023-05-09T02:45:54;98436.00;;;6.72;100.00
36190;BME280;22232;50.914;13.858;2023-05-09T02:48:22;98439.25;;;6.68;100.00
36190;BME280;22232;50.914;13.858;2023-05-09T02:50:49;98434.13;;;6.66;100.00
36190;BME280;22232;50.914;13.858;2023-05-09T02:53:17;98442.72;;;6.68;100.00
36190;BME280;22232;50.914;13.858;2023-05-09T02:55:44;98443.91;;;6.65;100.00
36190;BME280;22232;50.914;13.858;2023-05-09T02:58:12;98433.34;;;6.72;100.00
36190;BME280;22232;50.914;13.858;2023-05-09T03:00:42;98441.31;;;6.72;100.00
36190;BME280;22232;50.914;13.858;2023-05-09T03:03:12;98439.25;;;6.68;100.00
36190;BME280;22232;50.914;13.858;2023-05-09T03:05:40;98430.59;;;6.59;100.00
36190;BME280;22232;50.914;13.858;2023-05-09T03:08:07;98434.06;;;6.59;100.00
36190;BME280;22232;50.914;13.858;2023-05-09T03:10:35;98433.44;;;6.57;100.00
36190;BME280;22232;50.914;13.858;2023-05-09T03:13:02;98436.81;;;6.51;100.00
36190;BME280;22232;50.914;13.858;2023-05-09T03:15:30;98434.38;;;6.50;100.00
36190;BME280;22232;50.914;13.858;2023-05-09T03:17:59;98438.81;;;6.42;100.00
36190;BME280;22232;50.914;13.858;2023-05-09T03:20:26;98432.75;;;6.49;100.00
36190;BME280;22232;50.914;13.858;2023-05-09T03:22:54;98437.09;;;6.56;100.00
36190;BME280;22232;50.914;13.858;2023-05-09T03:25:22;98424.84;;;6.55;100.00
36190;BME280;22232;50.914;13.858;2023-05-09T03:27:50;98428.06;;;6.51;100.00
36190;BME280;22232;50.914;13.858;2023-05-09T03:30:18;98440.56;;;6.57;100.00
36190;BME280;22232;50.914;13.858;2023-05-09T03:32:47;98433.88;;;6.82;100.00
36190;BME280;22232;50.914;13.858;2023-05-09T03:35:15;98423.56;;;7.22;100.00
36190;BME280;22232;50.914;13.858;2023-05-09T03:37:43;98420.13;;;7.63;99.78
36190;BME280;22232;50.914;13.858;2023-05-09T03:40:11;98422.75;;;7.98;96.61
36190;BME280;22232;50.914;13.858;2023-05-09T03:42:50;98421.59;;;8.34;89.03
36190;BME280;22232;50.914;13.858;2023-05-09T03:45:18;98424.97;;;8.62;84.95
36190;BME280;22232;50.914;13.858;2023-05-09T03:47:46;98419.88;;;9.14;83.63
36190;BME280;22232;50.914;13.858;2023-05-09T03:50:14;98420.66;;;9.34;77.93
36190;BME280;22232;50.914;13.858;2023-05-09T03:52:43;98410.84;;;9.93;75.63
36190;BME280;22232;50.914;13.858;2023-05-09T03:55:14;98417.72;;;10.59;69.35
36190;BME280;22232;50.914;13.858;2023-05-09T03:57:42;98409.28;;;10.62;65.99
36190;BME280;22232;50.914;13.858;2023-05-09T04:00:10;98416.63;;;10.67;65.62
36190;BME280;22232;50.914;13.858;2023-05-09T04:02:48;98415.47;;;11.31;62.54
36190;BME280;22232;50.914;13.858;2023-05-09T04:05:25;98407.72;;;11.66;59.86
36190;BME280;22232;50.914;13.858;2023-05-09T04:07:54;98408.16;;;12.00;59.12
36190;BME280;22232;50.914;13.858;2023-05-09T04:10:22;98410.25;;;12.28;57.43
36190;BME280;22232;50.914;13.858;2023-05-09T04:12:52;98404.75;;;12.53;55.93
36190;BME280;22232;50.914;13.858;2023-05-09T04:15:20;98407.47;;;12.35;54.53
36190;BME280;22232;50.914;13.858;2023-05-09T04:17:48;98403.44;;;12.86;54.53
36190;BME280;22232;50.914;13.858;2023-05-09T04:20:15;98400.31;;;13.01;54.73
36190;BME280;22232;50.914;13.858;2023-05-09T04:22:43;98395.41;;;12.86;53.44
36190;BME280;22232;50.914;13.858;2023-05-09T04:25:14;98401.13;;;13.13;54.04
36190;BME280;22232;50.914;13.858;2023-05-09T04:27:44;98396.47;;;12.97;54.87
36190;BME280;22232;50.914;13.858;2023-05-09T04:30:12;98396.53;;;13.84;51.38
36190;BME280;22232;50.914;13.858;2023-05-09T04:32:41;98393.59;;;13.97;50.97
36190;BME280;22232;50.914;13.858;2023-05-09T04:35:14;98392.06;;;14.02;52.57
36190;BME280;22232;50.914;13.858;2023-05-09T04:37:47;98393.09;;;13.60;51.36
36190;BME280;22232;50.914;13.858;2023-05-09T04:40:15;98387.59;;;12.96;52.01
36190;BME280;22232;50.914;13.858;2023-05-09T04:42:51;98380.84;;;13.05;52.07
36190;BME280;22232;50.914;13.858;2023-05-09T04:45:22;98386.50;;;13.27;51.29
36190;BME280;22232;50.914;13.858;2023-05-09T04:47:50;98391.88;;;13.91;52.70
36190;BME280;22232;50.914;13.858;2023-05-09T04:50:17;98377.94;;;13.54;51.68
36190;BME280;22232;50.914;13.858;2023-05-09T04:52:45;98390.50;;;13.77;51.02
36190;BME280;22232;50.914;13.858;2023-05-09T04:55:12;98382.16;;;14.31;49.82
36190;BME280;22232;50.914;13.858;2023-05-09T04:57:44;98388.75;;;13.71;50.27
36190;BME280;22232;50.914;13.858;2023-05-09T05:00:12;98390.16;;;14.14;49.78
36190;BME280;22232;50.914;13.858;2023-05-09T05:02:40;98380.19;;;13.97;49.96
36190;BME280;22232;50.914;13.858;2023-05-09T05:05:08;98385.16;;;14.06;50.67
36190;BME280;22232;50.914;13.858;2023-05-09T05:07:44;98378.19;;;13.17;50.03
36190;BME280;22232;50.914;13.858;2023-05-09T05:10:17;98372.50;;;13.37;51.32
36190;BME280;22232;50.914;13.858;2023-05-09T05:12:49;98380.25;;;13.74;50.82
36190;BME280;22232;50.914;13.858;2023-05-09T05:15:17;98375.53;;;13.41;51.57
36190;BME280;22232;50.914;13.858;2023-05-09T05:17:47;98377.25;;;13.47;52.12
36190;BME280;22232;50.914;13.858;2023-05-09T05:20:18;98365.53;;;14.45;49.57
36190;BME280;22232;50.914;13.858;2023-05-09T05:22:46;98370.69;;;13.66;51.92
36190;BME280;22232;50.914;13.858;2023-05-09T05:25:13;98367.97;;;13.90;51.54
36190;BME280;22232;50.914;13.858;2023-05-09T05:27:43;98377.59;;;13.50;50.91
36190;BME280;22232;50.914;13.858;2023-05-09T05:30:12;98373.09;;;13.91;50.77
36190;BME280;22232;50.914;13.858;2023-05-09T05:32:42;98374.22;;;13.67;51.09
36190;BME280;22232;50.914;13.858;2023-05-09T05:35:12;98377.19;;;13.82;49.91
36190;BME280;22232;50.914;13.858;2023-05-09T05:37:40;98367.97;;;14.18;51.26
36190;BME280;22232;50.914;13.858;2023-05-09T05:40:08;98367.56;;;15.06;48.96
36190;BME280;22232;50.914;13.858;2023-05-09T05:42:39;98368.31;;;14.84;47.80
36190;BME280;22232;50.914;13.858;2023-05-09T05:45:07;98363.03;;;15.06;50.04
36190;BME280;22232;50.914;13.858;2023-05-09T05:47:38;98361.03;;;15.35;48.13
36190;BME280;22232;50.914;13.858;2023-05-09T05:50:06;98368.44;;;15.67;46.17
36190;BME280;22232;50.914;13.858;2023-05-09T05:52:38;98361.16;;;15.07;47.50
36190;BME280;22232;50.914;13.858;2023-05-09T05:55:08;98370.75;;;14.52;47.53
36190;BME280;22232;50.914;13.858;2023-05-09T05:57:36;98361.72;;;15.09;49.49
36190;BME280;22232;50.914;13.858;2023-05-09T06:00:08;98363.88;;;15.29;48.40
36190;BME280;22232;50.914;13.858;2023-05-09T06:02:44;98358.22;;;15.08;47.17
36190;BME280;22232;50.914;13.858;2023-05-09T06:05:19;98356.16;;;15.32;47.50
36190;BME280;22232;50.914;13.858;2023-05-09T06:07:47;98362.72;;;14.52;46.94
36190;BME280;22232;50.914;13.858;2023-05-09T06:10:14;98349.97;;;14.48;49.07
36190;BME280;22232;50.914;13.858;2023-05-09T06:12:44;98357.72;;;14.15;49.61
36190;BME280;22232;50.914;13.858;2023-05-09T06:15:12;98355.44;;;14.07;49.58
36190;BME280;22232;50.914;13.858;2023-05-09T06:17:44;98354.69;;;13.83;50.32
36190;BME280;22232;50.914;13.858;2023-05-09T06:20:11;98351.34;;;14.50;50.18
36190;BME280;22232;50.914;13.858;2023-05-09T06:22:39;98343.47;;;15.11;53.17
36190;BME280;22232;50.914;13.858;2023-05-09T06:25:07;98347.91;;;15.39;49.51
36190;BME280;22232;50.914;13.858;2023-05-09T06:27:37;98339.56;;;15.19;48.24
36190;BME280;22232;50.914;13.858;2023-05-09T06:30:05;98335.25;;;15.40;49.09
36190;BME280;22232;50.914;13.858;2023-05-09T06:32:53;98336.09;;;15.62;49.75
36190;BME280;22232;50.914;13.858;2023-05-09T06:35:21;98329.03;;;15.34;46.80
36190;BME280;22232;50.914;13.858;2023-05-09T06:37:48;98338.78;;;14.84;48.52
36190;BME280;22232;50.914;13.858;2023-05-09T06:40:16;98328.56;;;15.81;48.62
36190;BME280;22232;50.914;13.858;2023-05-09T06:42:44;98328.22;;;16.26;49.15
36190;BME280;22232;50.914;13.858;2023-05-09T06:45:11;98326.03;;;17.25;48.42
36190;BME280;22232;50.914;13.858;2023-05-09T06:47:39;98323.72;;;16.96;45.98
36190;BME280;22232;50.914;13.858;2023-05-09T06:50:07;98318.69;;;17.15;44.39
36190;BME280;22232;50.914;13.858;2023-05-09T06:52:35;98316.38;;;16.27;45.21
36190;BME280;22232;50.914;13.858;2023-05-09T06:55:03;98323.16;;;15.59;47.15
36190;BME280;22232;50.914;13.858;2023-05-09T06:57:30;98317.91;;;15.47;47.94
36190;BME280;22232;50.914;13.858;2023-05-09T06:59:58;98319.44;;;15.21;49.04
36190;BME280;22232;50.914;13.858;2023-05-09T07:02:26;98321.53;;;16.02;50.32
36190;BME280;22232;50.914;13.858;2023-05-09T07:04:53;98313.97;;;16.26;49.12
36190;BME280;22232;50.914;13.858;2023-05-09T07:07:21;98296.66;;;16.81;47.42
36190;BME280;22232;50.914;13.858;2023-05-09T07:09:48;98299.84;;;16.46;45.93
36190;BME280;22232;50.914;13.858;2023-05-09T07:12:21;98294.06;;;16.00;45.81
36190;BME280;22232;50.914;13.858;2023-05-09T07:14:48;98284.13;;;16.33;48.76
36190;BME280;22232;50.914;13.858;2023-05-09T07:17:16;98290.47;;;16.86;48.46
36190;BME280;22232;50.914;13.858;2023-05-09T07:19:50;98288.56;;;16.17;45.63
36190;BME280;22232;50.914;13.858;2023-05-09T07:22:18;98283.69;;;16.46;46.62
36190;BME280;22232;50.914;13.858;2023-05-09T07:24:45;98282.03;;;16.08;46.40
36190;BME280;22232;50.914;13.858;2023-05-09T07:27:13;98278.13;;;15.93;47.34
36190;BME280;22232;50.914;13.858;2023-05-09T07:29:41;98281.31;;;16.49;46.59
36190;BME280;22232;50.914;13.858;2023-05-09T07:32:09;98276.63;;;16.35;46.80
36190;BME280;22232;50.914;13.858;2023-05-09T07:34:36;98278.56;;;16.77;47.54
36190;BME280;22232;50.914;13.858;2023-05-09T07:37:04;98262.03;;;15.71;46.69
36190;BME280;22232;50.914;13.858;2023-05-09T07:39:31;98263.56;;;15.45;47.72
36190;BME280;22232;50.914;13.858;2023-05-09T07:41:59;98274.47;;;16.04;47.70
36190;BME280;22232;50.914;13.858;2023-05-09T07:44:26;98267.31;;;16.47;46.88
36190;BME280;22232;50.914;13.858;2023-05-09T07:46:54;98259.91;;;16.33;46.41
36190;BME280;22232;50.914;13.858;2023-05-09T07:49:28;98256.41;;;16.69;45.75
36190;BME280;22232;50.914;13.858;2023-05-09T07:51:56;98252.94;;;17.11;46.36
36190;BME280;22232;50.914;13.858;2023-05-09T07:54:23;98245.69;;;17.17;44.89
36190;BME280;22232;50.914;13.858;2023-05-09T07:56:51;98249.44;;;17.16;46.51
36190;BME280;22232;50.914;13.858;2023-05-09T07:59:19;98245.78;;;17.42;47.50
36190;BME280;22232;50.914;13.858;2023-05-09T08:01:47;98237.47;;;16.96;46.58
36190;BME280;22232;50.914;13.858;2023-05-09T08:04:14;98237.44;;;16.91;46.14
36190;BME280;22232;50.914;13.858;2023-05-09T08:06:42;98239.91;;;16.98;45.83
36190;BME280;22232;50.914;13.858;2023-05-09T08:09:10;98239.47;;;17.22;44.24
36190;BME280;22232;50.914;13.858;2023-05-09T08:11:37;98240.03;;;17.24;46.14
36190;BME280;22232;50.914;13.858;2023-05-09T08:14:05;98238.13;;;17.19;46.20
36190;BME280;22232;50.914;13.858;2023-05-09T08:16:33;98234.25;;;17.67;44.85
36190;BME280;22232;50.914;13.858;2023-05-09T08:19:18;98235.66;;;17.12;44.82
36190;BME280;22232;50.914;13.858;2023-05-09T08:21:47;98237.66;;;17.32;45.02
36190;BME280;22232;50.914;13.858;2023-05-09T08:24:14;98237.53;;;17.07;44.94
36190;BME280;22232;50.914;13.858;2023-05-09T08:26:42;98223.13;;;16.86;46.19
36190;BME280;22232;50.914;13.858;2023-05-09T08:29:10;98220.84;;;16.67;46.64
36190;BME280;22232;50.914;13.858;2023-05-09T08:31:38;98223.78;;;17.03;44.60
36190;BME280;22232;50.914;13.858;2023-05-09T08:34:05;98223.53;;;16.67;45.17
36190;BME280;22232;50.914;13.858;2023-05-09T08:36:33;98211.56;;;16.85;44.92
36190;BME280;22232;50.914;13.858;2023-05-09T08:39:00;98211.38;;;17.02;45.72
36190;BME280;22232;50.914;13.858;2023-05-09T08:41:32;98214.06;;;17.02;44.84
36190;BME280;22232;50.914;13.858;2023-05-09T08:44:02;98215.03;;;16.81;45.23
36190;BME280;22232;50.914;13.858;2023-05-09T08:46:35;98214.75;;;17.40;46.05
36190;BME280;22232;50.914;13.858;2023-05-09T08:49:06;98205.06;;;16.81;44.07
36190;BME280;22232;50.914;13.858;2023-05-09T08:51:36;98205.41;;;16.52;45.17
36190;BME280;22232;50.914;13.858;2023-05-09T08:54:04;98202.00;;;16.67;45.96
36190;BME280;22232;50.914;13.858;2023-05-09T08:56:33;98193.09;;;16.62;44.12
36190;BME280;22232;50.914;13.858;2023-05-09T08:59:02;98195.78;;;16.67;46.01
36190;BME280;22232;50.914;13.858;2023-05-09T09:01:32;98193.38;;;16.70;46.25
36190;BME280;22232;50.914;13.858;2023-05-09T09:04:01;98188.41;;;16.89;46.47
36190;BME280;22232;50.914;13.858;2023-05-09T09:06:29;98189.03;;;17.12;46.74
36190;BME280;22232;50.914;13.858;2023-05-09T09:09:00;98186.69;;;17.26;45.65
36190;BME280;22232;50.914;13.858;2023-05-09T09:11:27;98186.13;;;17.24;45.95
36190;BME280;22232;50.914;13.858;2023-05-09T09:14:00;98186.00;;;16.93;44.47
36190;BME280;22232;50.914;13.858;2023-05-09T09:16:28;98191.44;;;17.03;43.92
36190;BME280;22232;50.914;13.858;2023-05-09T09:18:57;98191.84;;;16.80;44.61
36190;BME280;22232;50.914;13.858;2023-05-09T09:21:25;98185.03;;;17.19;45.68
36190;BME280;22232;50.914;13.858;2023-05-09T09:23:54;98185.84;;;17.20;45.12
36190;BME280;22232;50.914;13.858;2023-05-09T09:26:22;98189.91;;;17.23;44.86
36190;BME280;22232;50.914;13.858;2023-05-09T09:28:51;98187.44;;;17.16;45.01
36190;BME280;22232;50.914;13.858;2023-05-09T09:33:50;98188.84;;;17.34;42.86
36190;BME280;22232;50.914;13.858;2023-05-09T09:36:28;98178.69;;;17.56;46.14
36190;BME280;22232;50.914;13.858;2023-05-09T09:39:02;98173.25;;;17.41;45.53
36190;BME280;22232;50.914;13.858;2023-05-09T09:41:34;98177.66;;;17.83;44.05
36190;BME280;22232;50.914;13.858;2023-05-09T09:44:13;98166.31;;;18.17;45.33
36190;BME280;22232;50.914;13.858;2023-05-09T09:46:54;98182.72;;;17.54;44.41
36190;BME280;22232;50.914;13.858;2023-05-09T09:49:24;98170.25;;;17.37;44.01
36190;BME280;22232;50.914;13.858;2023-05-09T09:51:56;98173.47;;;17.29;44.09
36190;BME280;22232;50.914;13.858;2023-05-09T09:54:25;98171.59;;;17.40;43.89
36190;BME280;22232;50.914;13.858;2023-05-09T09:56:54;98169.72;;;17.40;44.28
36190;BME280;22232;50.914;13.858;2023-05-09T09:59:24;98171.56;;;17.25;43.62
36190;BME280;22232;50.914;13.858;2023-05-09T10:02:02;98166.19;;;17.25;42.47
36190;BME280;22232;50.914;13.858;2023-05-09T10:04:35;98171.13;;;17.63;41.51
36190;BME280;22232;50.914;13.858;2023-05-09T10:07:05;98169.16;;;17.33;41.98
36190;BME280;22232;50.914;13.858;2023-05-09T10:09:34;98158.88;;;17.15;41.25
36190;BME280;22232;50.914;13.858;2023-05-09T10:12:06;98152.03;;;16.92;42.30
36190;BME280;22232;50.914;13.858;2023-05-09T10:14:35;98157.72;;;16.95;42.49
36190;BME280;22232;50.914;13.858;2023-05-09T10:17:04;98147.50;;;17.03;43.65
36190;BME280;22232;50.914;13.858;2023-05-09T10:19:34;98150.75;;;17.10;43.19
36190;BME280;22232;50.914;13.858;2023-05-09T10:22:08;98152.28;;;16.80;41.79
36190;BME280;22232;50.914;13.858;2023-05-09T10:27:19;98146.97;;;17.06;42.22
36190;BME280;22232;50.914;13.858;2023-05-09T10:29:50;98142.44;;;17.22;42.54
36190;BME280;22232;50.914;13.858;2023-05-09T10:32:42;98126.81;;;17.24;42.89
36190;BME280;22232;50.914;13.858;2023-05-09T10:35:12;98136.13;;;16.85;41.83
36190;BME280;22232;50.914;13.858;2023-05-09T10:37:46;98116.09;;;17.59;43.67
36190;BME280;22232;50.914;13.858;2023-05-09T10:40:14;98119.09;;;17.68;40.14
36190;BME280;22232;50.914;13.858;2023-05-09T10:42:42;98120.72;;;17.74;40.55
36190;BME280;22232;50.914;13.858;2023-05-09T10:45:11;98115.06;;;17.81;40.92
36190;BME280;22232;50.914;13.858;2023-05-09T10:47:43;98107.22;;;17.74;41.61
36190;BME280;22232;50.914;13.858;2023-05-09T10:50:11;98111.25;;;17.72;39.43
36190;BME280;22232;50.914;13.858;2023-05-09T10:55:55;98086.97;;;17.56;41.30
36190;BME280;22232;50.914;13.858;2023-05-09T10:58:27;98090.47;;;17.62;40.20
36190;BME280;22232;50.914;13.858;2023-05-09T11:00:57;98093.44;;;17.50;39.81
36190;BME280;22232;50.914;13.858;2023-05-09T11:03:28;98085.34;;;17.55;39.08
36190;BME280;22232;50.914;13.858;2023-05-09T11:05:57;98079.41;;;17.58;39.84
36190;BME280;22232;50.914;13.858;2023-05-09T11:08:29;98081.03;;;17.70;40.51
36190;BME280;22232;50.914;13.858;2023-05-09T11:10:58;98075.94;;;17.68;40.75
36190;BME280;22232;50.914;13.858;2023-05-09T11:13:31;98061.06;;;18.01;41.61
36190;BME280;22232;50.914;13.858;2023-05-09T11:18:28;98065.13;;;17.68;39.87
36190;BME280;22232;50.914;13.858;2023-05-09T11:20:55;98063.78;;;17.96;39.36
36190;BME280;22232;50.914;13.858;2023-05-09T11:23:28;98054.06;;;17.80;38.87
36190;BME280;22232;50.914;13.858;2023-05-09T11:26:04;98049.72;;;18.15;39.76
36190;BME280;22232;50.914;13.858;2023-05-09T11:28:37;98049.97;;;18.13;38.11
36190;BME280;22232;50.914;13.858;2023-05-09T11:31:13;98042.63;;;18.34;40.15
36190;BME280;22232;50.914;13.858;2023-05-09T11:33:42;98035.06;;;18.36;38.31
36190;BME280;22232;50.914;13.858;2023-05-09T11:38:45;98038.50;;;18.52;38.02
36190;BME280;22232;50.914;13.858;2023-05-09T11:41:14;98031.28;;;18.42;35.53
36190;BME280;22232;50.914;13.858;2023-05-09T11:43:42;98025.31;;;18.45;36.27
36190;BME280;22232;50.914;13.858;2023-05-09T11:46:12;98021.06;;;18.24;36.87
36190;BME280;22232;50.914;13.858;2023-05-09T11:48:40;98017.78;;;18.37;36.48
36190;BME280;22232;50.914;13.858;2023-05-09T11:51:17;98012.03;;;18.54;36.89
36190;BME280;22232;50.914;13.858;2023-05-09T11:53:48;98018.69;;;18.82;37.65
36190;BME280;22232;50.914;13.858;2023-05-09T11:56:16;98001.00;;;18.50;38.13
36190;BME280;22232;50.914;13.858;2023-05-09T11:58:44;98005.22;;;18.67;38.68
36190;BME280;22232;50.914;13.858;2023-05-09T12:01:13;97990.31;;;18.79;34.35
36190;BME280;22232;50.914;13.858;2023-05-09T12:03:42;97983.00;;;18.85;37.26
36190;BME280;22232;50.914;13.858;2023-05-09T12:06:17;97986.38;;;18.56;36.37
36190;BME280;22232;50.914;13.858;2023-05-09T12:08:46;97986.06;;;18.63;36.63
36190;BME280;22232;50.914;13.858;2023-05-09T12:11:13;97979.47;;;18.35;36.89
36190;BME280;22232;50.914;13.858;2023-05-09T12:13:48;97974.88;;;18.25;37.69
36190;BME280;22232;50.914;13.858;2023-05-09T12:16:17;97972.97;;;18.31;37.26
36190;BME280;22232;50.914;13.858;2023-05-09T12:18:45;97978.16;;;18.77;35.76
36190;BME280;22232;50.914;13.858;2023-05-09T12:21:13;97972.78;;;18.72;35.60
36190;BME280;22232;50.914;13.858;2023-05-09T12:23:41;97964.47;;;18.63;36.46
36190;BME280;22232;50.914;13.858;2023-05-09T12:26:09;97965.41;;;18.88;35.74
36190;BME280;22232;50.914;13.858;2023-05-09T12:28:37;97958.31;;;18.97;34.93
36190;BME280;22232;50.914;13.858;2023-05-09T12:31:05;97964.69;;;18.67;36.12
36190;BME280;22232;50.914;13.858;2023-05-09T12:33:33;97956.44;;;18.48;36.24
36190;BME280;22232;50.914;13.858;2023-05-09T12:36:08;97952.31;;;18.55;36.57
36190;BME280;22232;50.914;13.858;2023-05-09T12:38:37;97947.63;;;18.22;36.72
36190;BME280;22232;50.914;13.858;2023-05-09T12:41:06;97948.19;;;18.14;35.99
36190;BME280;22232;50.914;13.858;2023-05-09T12:43:54;97942.22;;;18.71;36.77
36190;BME280;22232;50.914;13.858;2023-05-09T12:46:22;97948.69;;;18.80;35.26
36190;BME280;22232;50.914;13.858;2023-05-09T12:48:50;97942.81;;;18.73;35.14
36190;BME280;22232;50.914;13.858;2023-05-09T12:51:19;97943.81;;;18.83;37.11
36190;BME280;22232;50.914;13.858;2023-05-09T12:53:47;97946.66;;;19.01;38.51
36190;BME280;22232;50.914;13.858;2023-05-09T12:56:19;97942.28;;;18.66;37.80
36190;BME280;22232;50.914;13.858;2023-05-09T12:58:51;97931.25;;;18.57;37.19
36190;BME280;22232;50.914;13.858;2023-05-09T13:01:21;97936.47;;;18.93;37.25
36190;BME280;22232;50.914;13.858;2023-05-09T13:03:51;97930.09;;;18.74;36.19
36190;BME280;22232;50.914;13.858;2023-05-09T13:06:19;97928.50;;;18.73;35.88
36190;BME280;22232;50.914;13.858;2023-05-09T13:08:56;97921.47;;;18.67;35.55
36190;BME280;22232;50.914;13.858;2023-05-09T13:11:25;97921.22;;;18.63;34.81
36190;BME280;22232;50.914;13.858;2023-05-09T13:13:53;97916.19;;;18.46;35.17
36190;BME280;22232;50.914;13.858;2023-05-09T13:16:21;97909.66;;;18.08;34.42
36190;BME280;22232;50.914;13.858;2023-05-09T13:18:49;97907.94;;;18.27;35.76
36190;BME280;22232;50.914;13.858;2023-05-09T13:21:16;97909.91;;;18.56;37.26
36190;BME280;22232;50.914;13.858;2023-05-09T13:23:44;97896.25;;;18.37;37.33